Meteo Giornale » Osservazioni meteo Italia » Lecce

ore: 08:55 - Osservazioni Meteo Lecce
Lat. 40° 14' N Lon. 18° 9' E Alt. 48 metri s.l.m.

poco_nuvoloso Europe/Rome

27 °C

Poco Nuvoloso

Temp. 24 Ore

19 °C

28 °C

Nord/NOvest

18.5 Km/h

Dew point 22 °C

Umidità 74 %

Visibilità  10 Km

Il sole sorge alle ore 05:59

Il sole tramonta alle ore 19:43

Data e Ora Cielo e Fenomeni T °C DP °C Um. % Pres. hPa Vis. km Vento km/h
Oggi h: 08:55 poco_nuvoloso Poco Nuvoloso 27 22 74 1013 10 N/NO 18.5
Oggi h: 07:55 poco_nuvoloso Poco Nuvoloso 23 21 88 1013 10 N/NO 7.4
Oggi h: 06:55 sereno Sereno 20 19 93 1013 10 N 1.8
Oggi h: 03:55 sereno Sereno 19 18 93 1012 10 N 5.5
Oggi h: 01:55 poco_nuvoloso Poco Nuvoloso 20 19 93 1012 10 N 5.5
Oggi h: 00:55 sereno Sereno 21 20 94 1012 10 N 0
Ieri h: 23:55 sereno Sereno 21 20 94 1012 10 N 3.7
Ieri h: 22:55 sereno Sereno 22 20 88 1012 10 N 5.5
Ieri h: 21:55 sereno Sereno 22 20 88 1012 10 N 5.5
Ieri h: 20:55 sereno Sereno 23 20 83 1012 10 N 3.7
Ieri h: 19:55 sereno Sereno 24 20 78 1012 10 N/NE 7.4
Ieri h: 18:55 sereno Sereno 25 19 69 1012 10 N/NE 11.1
Ieri h: 17:55 sereno Sereno 25 20 73 1012 10 N/NO 11.1
Ieri h: 16:55 poco_nuvoloso Poco Nuvoloso 25 21 78 1012 10 NO 14.8
Ieri h: 15:55 nuvoloso Nuvoloso 25 20 73 1012 10 NO 14.8
Ieri h: 14:55 nuvoloso Nuvoloso 24 20 78 1012 10 O/NO 13
Ieri h: 13:55 nuvoloso Nuvoloso 22 19 83 1012 10 O/SO 14.8
Ieri h: 13:12 coperto_temporali Temporale 22 20 88 1013 6 SO 14.8
Ieri h: 12:55 nuvoloso_temporali Temporale con Pioggia Debole 21 19 88 1013 6 S 14.8
Ieri h: 12:11 nuvoloso_temporali Temporale con Pioggia 20 19 93 1012 3 S/SE 29.6
Ieri h: 11:55 nuvoloso_temporali Temporale con Pioggia Debole 23 18 73 1012 7 S 27.8
Ieri h: 10:55 poco_nuvoloso Poco Nuvoloso 28 21 65 1011 10 N 16.7
Ieri h: 09:55 poco_nuvoloso Poco Nuvoloso 27 21 69 1011 10 N 20.3